Time;durP1;ratioP1;P1;durP2;ratioP2;P2;SDS_P1;SDS_P2;PMS_P1;PMS_P2;Temp;Humidity;BMP_temperature;BMP_pressure;BME280_temperature;BME280_humidity;BME280_pressure;Samples;Min_cycle;Max_cycle;Signal;HPM_P1;HPM_P2
2022/07/07 00:02:17;;;;;;;7.70;4.78;;;;;;;17.51;80.98;68720.56;5048061;28;20545;-78
2022/07/07 00:04:42;;;;;;;8.57;5.07;;;;;;;17.53;80.89;68722.28;5047528;28;20044;-82
2022/07/07 00:07:08;;;;;;;6.45;4.60;;;;;;;17.51;80.72;68714.63;5062640;28;20033;-79
2022/07/07 00:09:34;;;;;;;8.27;4.88;;;;;;;;;;5047490;28;20037;-82
2022/07/07 00:11:59;;;;;;;6.95;4.80;;;;;;;17.45;80.94;68713.72;5047133;28;20068;-81
2022/07/07 00:14:25;;;;;;;8.15;5.25;;;;;;;17.45;81.58;68713.16;5046328;28;20044;-78
2022/07/07 00:16:50;;;;;;;8.88;4.30;;;;;;;17.46;81.19;68714.28;5028453;28;20049;-80
2022/07/07 00:19:16;;;;;;;11.40;5.80;;;;;;;17.43;81.39;68706.06;5027680;28;20117;-82
2022/07/07 00:21:41;;;;;;;9.43;5.38;;;;;;;;;;5042922;28;20045;-78
2022/07/07 00:24:06;;;;;;;7.07;4.68;;;;;;;17.41;81.99;68708.59;5024096;28;20049;-82
2022/07/07 00:26:33;;;;;;;5.85;4.35;;;;;;;17.38;82.71;68700.38;5032109;28;20616;-83
2022/07/07 00:28:58;;;;;;;7.45;4.75;;;;;;;17.38;83.04;68700.38;5026233;28;20513;-82
2022/07/07 00:31:24;;;;;;;6.80;5.05;;;;;;;17.40;83.18;68707.44;5027306;28;20038;-80
2022/07/07 00:33:49;;;;;;;6.85;4.72;;;;;;;17.42;82.97;68704.91;5027580;28;20042;-81
2022/07/07 00:36:15;;;;;;;7.28;4.65;;;;;;;;;;5028700;28;20060;-79
2022/07/07 00:38:40;;;;;;;7.32;4.75;;;;;;;17.44;83.30;68707.22;5026680;28;20045;-77
2022/07/07 00:41:06;;;;;;;8.15;4.88;;;;;;;;;;5026676;28;20067;-81
2022/07/07 00:43:35;;;;;;;9.10;5.30;;;;;;;17.43;84.07;68705.47;5030063;28;20058;-78
2022/07/07 00:46:02;;;;;;;8.63;5.63;;;;;;;17.42;84.54;68701.66;5026698;28;20044;-82
2022/07/07 00:48:27;;;;;;;8.18;5.97;;;;;;;17.42;84.64;68704.91;5026213;28;20124;-80
2022/07/07 00:50:53;;;;;;;10.98;5.95;;;;;;;;;;5026458;28;20166;-84
2022/07/07 00:53:18;;;;;;;8.52;6.03;;;;;;;17.42;85.52;68704.34;5025020;28;20033;-79
2022/07/07 00:55:43;;;;;;;8.57;6.18;;;;;;;;;;5024349;28;20049;-81
2022/07/07 00:58:09;;;;;;;6.40;5.05;;;;;;;17.41;86.06;68700.53;5025224;28;20065;-77
2022/07/07 01:00:34;;;;;;;8.48;5.60;;;;;;;17.43;86.34;68706.06;5025163;28;20036;-80
2022/07/07 01:03:00;;;;;;;7.80;6.50;;;;;;;17.44;86.19;68707.22;5026707;28;20060;-82
2022/07/07 01:05:26;;;;;;;9.52;6.20;;;;;;;17.45;86.18;68707.78;5026449;28;20068;-83
2022/07/07 01:07:52;;;;;;;9.27;5.88;;;;;;;;;;5023974;28;20037;-81
2022/07/07 01:10:18;;;;;;;8.90;5.90;;;;;;;17.46;86.54;68714.28;5026132;28;20391;-79
2022/07/07 01:12:45;;;;;;;8.30;5.78;;;;;;;17.47;86.94;68710.06;5025877;28;20139;-78
2022/07/07 01:15:13;;;;;;;11.40;7.05;;;;;;;17.47;86.98;68707.38;5025946;28;20089;-78
2022/07/07 01:17:40;;;;;;;9.18;6.60;;;;;;;17.47;87.02;68715.44;5027124;28;20049;-80
2022/07/07 01:20:07;;;;;;;8.55;5.97;;;;;;;17.46;87.13;68709.47;5024544;28;20095;-80
2022/07/07 01:22:36;;;;;;;9.55;7.15;;;;;;;;;;5024617;28;20054;-79
2022/07/07 01:25:03;;;;;;;;;;;;;;;17.51;87.01;68712.50;5026220;28;20045;-79
2022/07/07 01:27:28;;;;;;;8.93;6.07;;;;;;;17.45;87.66;68705.09;5026638;28;19920;-81
2022/07/07 01:29:55;;;;;;;9.85;5.93;;;;;;;17.42;88.48;68709.72;5025715;28;20045;-77
2022/07/07 01:32:22;;;;;;;8.90;6.53;;;;;;;17.45;87.94;68708.34;5026999;28;20042;-80
2022/07/07 01:34:49;;;;;;;11.80;6.95;;;;;;;17.45;88.27;68708.34;5027646;28;20073;-79
2022/07/07 01:37:15;;;;;;;10.48;7.03;;;;;;;;;;5024723;28;20071;-81
2022/07/07 01:39:42;;;;;;;12.13;7.68;;;;;;;17.47;88.32;68710.06;5025295;28;20100;-80
2022/07/07 01:42:08;;;;;;;9.93;6.15;;;;;;;17.47;88.48;68707.94;5024399;28;20060;-81
2022/07/07 01:44:35;;;;;;;10.45;6.57;;;;;;;17.45;89.38;68713.16;5026182;28;20429;-81
2022/07/07 01:47:01;;;;;;;9.95;7.00;;;;;;;17.46;88.69;68708.91;5028715;28;20037;-83
2022/07/07 01:49:27;;;;;;;10.85;6.78;;;;;;;;;;5026665;28;20045;-79
2022/07/07 01:51:53;;;;;;;11.80;6.28;;;;;;;17.46;90.11;68714.28;5024725;28;20036;-82
2022/07/07 01:54:18;;;;;;;11.93;7.50;;;;;;;17.47;89.44;68716.00;5022340;28;20518;-83
2022/07/07 01:56:45;;;;;;;10.63;7.28;;;;;;;17.46;89.86;68714.84;5023755;28;20053;-79
2022/07/07 01:59:10;;;;;;;10.80;7.32;;;;;;;;;;5020851;28;20038;-79
2022/07/07 02:01:36;;;;;;;11.00;7.50;;;;;;;17.36;92.67;68698.06;5025973;28;20103;-83
2022/07/07 02:04:01;;;;;;;12.00;7.47;;;;;;;17.34;93.18;68696.34;5023233;28;20588;-80
2022/07/07 02:06:27;;;;;;;12.02;7.40;;;;;;;17.24;95.00;68693.03;5023508;28;20125;-79
2022/07/07 02:08:52;;;;;;;10.75;8.75;;;;;;;17.22;96.06;68682.66;5022935;28;20061;-79
2022/07/07 02:11:18;;;;;;;13.00;9.95;;;;;;;17.11;97.95;68675.50;5021513;28;20116;-81
2022/07/07 02:13:49;;;;;;;15.10;9.15;;;;;;;17.06;98.62;68664.41;5021278;28;20543;-81
2022/07/07 02:16:16;;;;;;;12.90;9.55;;;;;;;17.00;99.76;68662.94;5021053;28;20041;-80
2022/07/07 02:18:42;;;;;;;15.00;10.50;;;;;;;16.92;100.00;68649.03;5024884;28;20152;-80
2022/07/07 02:21:10;;;;;;;18.55;12.00;;;;;;;16.88;100.00;68649.84;5021395;28;20694;-82
2022/07/07 02:23:36;;;;;;;19.80;12.68;;;;;;;;;;5025854;28;20394;-85
2022/07/07 02:26:01;;;;;;;16.90;11.57;;;;;;;16.83;100.00;68639.34;5022707;28;20041;-82
2022/07/07 02:28:27;;;;;;;18.52;12.52;;;;;;;;;;5046909;23;20037;-81
2022/07/07 02:30:53;;;;;;;20.95;12.73;;;;;;;16.76;100.00;68631.34;5030718;28;20144;-80
2022/07/07 02:33:20;;;;;;;18.88;15.25;;;;;;;16.75;100.00;68629.63;5026921;28;20037;-80
2022/07/07 02:35:46;;;;;;;18.20;13.35;;;;;;;;;;5031814;28;20045;-81
2022/07/07 02:38:11;;;;;;;16.13;12.55;;;;;;;16.70;100.00;68625.06;5028232;28;20053;-81
2022/07/07 02:40:37;;;;;;;19.60;12.98;;;;;;;16.68;100.00;68617.38;5008042;28;20030;-83
2022/07/07 02:43:02;;;;;;;21.17;14.55;;;;;;;;;;5011905;28;20072;-84
2022/07/07 02:45:28;;;;;;;19.88;13.75;;;;;;;16.69;100.00;68628.72;5008996;28;20045;-82
2022/07/07 02:47:53;;;;;;;16.65;13.00;;;;;;;;;;5011903;28;20101;-82
2022/07/07 02:50:18;;;;;;;19.10;13.38;;;;;;;16.72;100.00;68626.78;5014956;28;20053;-84
2022/07/07 02:52:44;;;;;;;21.02;14.27;;;;;;;;;;5018728;28;20046;-82
2022/07/07 02:55:09;;;;;;;19.90;14.00;;;;;;;;;;5022288;28;20053;-83
2022/07/07 02:57:34;;;;;;;19.15;14.70;;;;;;;16.76;100.00;68631.34;5021055;28;20487;-82
2022/07/07 03:00:00;;;;;;;22.23;15.90;;;;;;;16.77;100.00;68640.53;5020614;28;20041;-83
2022/07/07 03:02:26;;;;;;;18.95;13.95;;;;;;;16.68;100.00;68622.19;5019499;28;20042;-82
2022/07/07 03:04:51;;;;;;;18.52;14.35;;;;;;;;;;5015553;28;20049;-78
2022/07/07 03:07:19;;;;;;;17.80;11.98;;;;;;;16.71;100.00;68625.63;5008278;28;20048;-78
2022/07/07 03:09:45;;;;;;;17.17;13.13;;;;;;;16.70;100.00;68624.47;5005696;28;20052;-79
2022/07/07 03:12:10;;;;;;;17.55;13.38;;;;;;;16.69;100.00;68623.34;5004906;28;20113;-80
2022/07/07 03:14:36;;;;;;;18.98;14.20;;;;;;;16.73;100.00;68627.34;5010062;28;20069;-79
2022/07/07 03:17:01;;;;;;;17.38;12.40;;;;;;;16.67;100.00;68621.06;5010284;28;20097;-79
2022/07/07 03:19:27;;;;;;;17.83;12.63;;;;;;;16.65;100.00;68618.78;5012575;28;20046;-79
2022/07/07 03:21:52;;;;;;;21.63;14.70;;;;;;;16.60;100.00;68613.06;5003658;28;20120;-80
2022/07/07 03:24:17;;;;;;;22.15;16.30;;;;;;;16.57;100.00;68618.31;5005719;28;20425;-81
2022/07/07 03:26:43;;;;;;;22.77;15.57;;;;;;;;;;5007383;28;20038;-78
2022/07/07 03:29:08;;;;;;;22.80;16.70;;;;;;;;;;5002855;28;20068;-79
2022/07/07 03:31:33;;;;;;;23.90;18.45;;;;;;;;;;5009205;28;20301;-80
2022/07/07 03:33:59;;;;;;;25.27;19.63;;;;;;;16.43;100.00;68600.22;5015449;28;20115;-79
2022/07/07 03:36:24;;;;;;;22.75;18.33;;;;;;;16.43;100.00;68599.66;5014948;28;20085;-79
2022/07/07 03:38:50;;;;;;;20.55;15.40;;;;;;;16.34;100.00;68584.59;5009749;28;20053;-80
2022/07/07 03:41:15;;;;;;;21.85;15.63;;;;;;;;;;5008033;28;20130;-79
2022/07/07 03:43:41;;;;;;;14.27;10.53;;;;;;;16.31;100.00;68581.16;5011328;28;20649;-79
2022/07/07 03:46:07;;;;;;;12.80;8.32;;;;;;;16.28;100.00;68574.47;5007377;28;20296;-77
2022/07/07 03:51:35;;;;;;;11.45;6.25;;;;;;;16.23;100.00;68578.00;5015373;28;20069;-81
2022/07/07 03:54:00;;;;;;;7.60;6.38;;;;;;;16.23;100.00;68577.41;5001083;28;20042;-80
2022/07/07 03:56:25;;;;;;;10.07;5.70;;;;;;;;;;5009068;28;20042;-80
2022/07/07 03:58:51;;;;;;;8.48;5.28;;;;;;;;;;5006984;28;20045;-77
2022/07/07 04:01:16;;;;;;;9.35;5.55;;;;;;;16.19;100.00;68573.41;5008648;28;20489;-79
2022/07/07 04:03:41;;;;;;;7.70;5.32;;;;;;;;;;5010542;28;20049;-79
2022/07/07 04:06:07;;;;;;;8.50;5.77;;;;;;;16.21;100.00;68575.69;5012257;28;20054;-80
2022/07/07 04:08:32;;;;;;;8.80;5.78;;;;;;;16.18;100.00;68566.34;5010524;28;20300;-80
2022/07/07 04:10:57;;;;;;;8.55;6.55;;;;;;;;;;5014316;28;20107;-80
2022/07/07 04:13:23;;;;;;;9.07;6.72;;;;;;;16.13;100.00;68566.00;5009585;28;20053;-83
2022/07/07 04:15:48;;;;;;;9.73;7.75;;;;;;;16.15;100.00;68568.88;5013354;28;20050;-80
2022/07/07 04:18:13;;;;;;;9.05;7.05;;;;;;;;;;5012834;28;20061;-78
2022/07/07 04:20:39;;;;;;;8.73;7.33;;;;;;;;;;5011723;28;20057;-81
2022/07/07 04:23:04;;;;;;;10.88;7.72;;;;;;;;;;5009493;28;20303;-80
2022/07/07 04:25:29;;;;;;;10.48;7.90;;;;;;;;;;5014157;28;20742;-81
2022/07/07 04:27:55;;;;;;;9.50;7.22;;;;;;;15.97;100.00;68548.34;5012671;28;20104;-80
2022/07/07 04:30:20;;;;;;;8.77;6.40;;;;;;;15.93;100.00;68544.34;5010485;28;20050;-79
2022/07/07 04:32:45;;;;;;;8.63;5.93;;;;;;;15.93;100.00;68538.97;5010467;28;20087;-77
2022/07/07 04:35:11;;;;;;;9.07;6.45;;;;;;;15.92;100.00;68537.28;5005924;28;20091;-79
2022/07/07 04:37:36;;;;;;;9.93;7.05;;;;;;;15.97;100.00;68542.97;5006541;28;20053;-79
2022/07/07 04:40:05;;;;;;;8.07;6.20;;;;;;;;;;5012625;28;20549;-79
2022/07/07 04:42:30;;;;;;;8.18;7.35;;;;;;;;;;5004226;28;20050;-79
2022/07/07 04:44:56;;;;;;;7.47;6.05;;;;;;;;;;5018213;28;20111;-78
2022/07/07 04:47:22;;;;;;;7.88;6.82;;;;;;;15.88;100.00;68538.66;5005601;28;20054;-79
2022/07/07 04:49:50;;;;;;;8.35;6.57;;;;;;;15.86;100.00;68535.81;5003120;28;20053;-79
2022/07/07 04:52:15;;;;;;;7.30;6.22;;;;;;;15.87;100.00;68536.94;5005000;28;20037;-80
2022/07/07 04:54:40;;;;;;;10.02;6.25;;;;;;;15.88;100.00;68532.72;5007168;28;20153;-80
2022/07/07 04:57:06;;;;;;;8.23;5.93;;;;;;;;;;5008479;28;20034;-79
2022/07/07 04:59:31;;;;;;;9.82;7.18;;;;;;;15.89;100.00;68533.88;5005858;28;20064;-79
2022/07/07 05:01:56;;;;;;;7.72;6.70;;;;;;;15.90;100.00;68540.94;5009759;28;20631;-79
2022/07/07 05:04:22;;;;;;;8.88;6.97;;;;;;;15.93;100.00;68538.97;5004649;28;20053;-79
2022/07/07 05:06:47;;;;;;;8.73;7.00;;;;;;;15.90;100.00;68540.94;5009958;28;20894;-78
2022/07/07 05:09:12;;;;;;;8.88;7.47;;;;;;;;;;5004477;28;20050;-79
2022/07/07 05:11:38;;;;;;;10.13;6.65;;;;;;;15.90;100.00;68535.56;5007479;28;20034;-80
2022/07/07 05:14:03;;;;;;;7.55;6.40;;;;;;;;;;5004798;28;20503;-79
2022/07/07 05:16:29;;;;;;;8.80;7.00;;;;;;;15.90;100.00;68540.94;5012611;28;20620;-79
2022/07/07 05:18:55;;;;;;;9.73;7.07;;;;;;;15.91;100.00;68536.72;4995830;28;20050;-79
2022/07/07 05:21:21;;;;;;;8.70;7.22;;;;;;;15.86;100.00;68536.38;4993607;28;20046;-78
2022/07/07 05:23:46;;;;;;;9.68;7.38;;;;;;;;;;4987004;28;20097;-80
2022/07/07 05:26:12;;;;;;;9.07;7.50;;;;;;;;;;4986541;28;20033;-78
2022/07/07 05:28:41;;;;;;;11.68;7.43;;;;;;;;;;4989552;28;20046;-78
2022/07/07 05:31:13;;;;;;;7.22;5.50;;;;;;;15.84;100.00;68528.72;4983649;28;20111;-78
2022/07/07 05:33:40;;;;;;;8.70;5.38;;;;;;;15.89;100.00;68539.81;5015552;28;20413;-79
2022/07/07 05:36:06;;;;;;;7.18;5.07;;;;;;;15.90;100.00;68530.19;5011228;28;20041;-79
2022/07/07 05:38:32;;;;;;;7.55;4.75;;;;;;;15.95;100.00;68546.06;5005768;28;20124;-79
2022/07/07 05:40:58;;;;;;;6.10;4.20;;;;;;;15.98;100.00;68550.06;5005521;28;20037;-79
2022/07/07 05:43:23;;;;;;;7.28;4.60;;;;;;;15.95;100.00;68541.25;5006163;28;20666;-79
2022/07/07 05:45:49;;;;;;;7.40;4.57;;;;;;;15.96;100.00;68541.84;5005115;28;20045;-78
2022/07/07 05:48:14;;;;;;;6.97;3.60;;;;;;;15.85;100.00;68534.66;5007739;28;20579;-78
2022/07/07 05:50:40;;;;;;;5.07;3.20;;;;;;;15.84;100.00;68533.53;5008225;28;20037;-79
2022/07/07 05:53:05;;;;;;;5.32;2.28;;;;;;;;;;5008566;28;20046;-78
2022/07/07 05:55:31;;;;;;;4.05;1.50;;;;;;;15.54;100.00;68495.66;5011979;28;20384;-78
2022/07/07 05:57:57;;;;;;;4.28;1.40;;;;;;;15.37;100.00;68481.66;4995762;28;20045;-78
2022/07/07 06:00:23;;;;;;;2.00;1.35;;;;;;;;;;4988708;28;20511;-80
2022/07/07 06:02:49;;;;;;;4.53;1.40;;;;;;;15.45;100.00;68490.19;4997005;28;20542;-78
2022/07/07 06:05:14;;;;;;;6.13;1.65;;;;;;;15.43;100.00;68491.19;5008419;28;20038;-78
2022/07/07 06:07:39;;;;;;;3.13;1.38;;;;;;;;;;5004758;28;20049;-79
2022/07/07 06:10:06;;;;;;;3.63;1.75;;;;;;;15.48;100.00;68494.19;5006773;28;20075;-77
2022/07/07 06:12:32;;;;;;;3.40;1.48;;;;;;;15.42;100.00;68482.00;5012035;28;20045;-79
2022/07/07 06:14:57;;;;;;;5.45;1.73;;;;;;;15.46;100.00;68491.91;5007265;28;20136;-77
2022/07/07 06:17:23;;;;;;;5.75;1.60;;;;;;;15.50;100.00;68487.84;5009100;28;20053;-78
2022/07/07 06:19:48;;;;;;;8.18;1.70;;;;;;;15.51;100.00;68497.06;5015944;28;20042;-79
2022/07/07 06:22:14;;;;;;;6.85;1.42;;;;;;;15.51;100.00;68491.69;5004745;28;20053;-78
2022/07/07 06:24:41;;;;;;;5.13;1.65;;;;;;;;;;4991990;28;20042;-79
2022/07/07 06:27:06;;;;;;;6.25;1.85;;;;;;;15.57;100.00;68503.88;4984319;28;20030;-79
2022/07/07 06:29:32;;;;;;;5.10;2.03;;;;;;;15.55;100.00;68504.84;5002542;28;20040;-78
2022/07/07 06:31:57;;;;;;;8.45;2.05;;;;;;;15.57;100.00;68504.44;5006515;28;20128;-78
2022/07/07 06:34:22;;;;;;;7.05;1.95;;;;;;;15.51;100.00;68491.69;5004972;28;20053;-79
2022/07/07 06:36:48;;;;;;;6.63;1.90;;;;;;;;;;5006520;28;20505;-78
2022/07/07 06:39:13;;;;;;;9.50;2.20;;;;;;;15.41;100.00;68486.22;5006506;28;20107;-79
2022/07/07 06:41:39;;;;;;;8.32;1.67;;;;;;;15.27;100.00;68470.84;5005342;28;20073;-78
2022/07/07 06:44:06;;;;;;;4.93;1.50;;;;;;;15.17;100.00;68459.47;4992343;28;20126;-78
2022/07/07 06:46:31;;;;;;;6.85;1.70;;;;;;;15.01;100.00;68441.78;4999674;28;20050;-78
2022/07/07 06:48:57;;;;;;;10.02;2.10;;;;;;;14.95;100.00;68434.97;4977538;28;20045;-79
2022/07/07 06:51:23;;;;;;;7.22;2.10;;;;;;;14.94;100.00;68427.91;4994152;28;20746;-79
2022/07/07 06:53:48;;;;;;;10.38;2.08;;;;;;;14.93;100.00;68432.69;4990803;28;20047;-80
2022/07/07 06:56:14;;;;;;;4.85;1.67;;;;;;;;;;5008203;28;20066;-79
2022/07/07 06:58:39;;;;;;;7.75;1.98;;;;;;;;;;5002398;28;20058;-78
2022/07/07 07:01:05;;;;;;;10.15;2.00;;;;;;;15.15;100.00;68456.59;5004304;28;20116;-77
2022/07/07 07:03:30;;;;;;;9.38;2.03;;;;;;;;;;5007403;28;20041;-79
2022/07/07 07:05:56;;;;;;;7.55;1.80;;;;;;;15.29;100.00;68472.56;5002743;28;20041;-79
2022/07/07 07:08:21;;;;;;;8.23;2.15;;;;;;;15.50;100.00;68490.53;5003974;28;20118;-78
2022/07/07 07:10:47;;;;;;;6.40;2.30;;;;;;;15.63;100.00;68510.72;5008290;28;20061;-78
2022/07/07 07:13:13;;;;;;;9.43;2.13;;;;;;;15.70;100.00;68513.34;5003341;28;20042;-79
2022/07/07 07:15:39;;;;;;;8.40;2.83;;;;;;;;;;5008174;28;20038;-78
2022/07/07 07:18:06;;;;;;;8.23;1.63;;;;;;;15.89;100.00;68531.75;5006462;28;20050;-77
2022/07/07 07:20:31;;;;;;;9.05;1.98;;;;;;;15.94;100.00;68539.53;5001807;28;20042;-77
2022/07/07 07:22:56;;;;;;;6.78;2.50;;;;;;;15.98;100.00;68544.13;5004838;28;20045;-78
2022/07/07 07:25:22;;;;;;;5.72;1.85;;;;;;;;;;5002746;28;20046;-77
2022/07/07 07:27:47;;;;;;;6.53;1.60;;;;;;;16.09;100.00;68556.09;5005565;28;20542;-79
2022/07/07 07:30:14;;;;;;;6.93;2.17;;;;;;;16.20;100.00;68574.56;4994586;28;20120;-80
2022/07/07 07:32:39;;;;;;;7.15;1.90;;;;;;;;;;4985771;28;20038;-80
2022/07/07 07:35:05;;;;;;;7.00;1.75;;;;;;;;;;4992530;28;20513;-78
2022/07/07 07:37:30;;;;;;;10.48;2.05;;;;;;;16.29;100.00;68584.25;4995184;28;20116;-80
2022/07/07 07:39:55;;;;;;;5.80;1.35;;;;;;;16.42;100.00;68593.69;4990372;28;20106;-79
2022/07/07 07:42:21;;;;;;;5.63;1.95;;;;;;;16.45;100.00;68602.47;4997094;28;20034;-80
2022/07/07 07:47:30;;;;;;;6.82;1.73;;;;;;;;;;5003532;28;20108;-79
2022/07/07 07:49:56;;;;;;;5.88;1.40;;;;;;;;;;4992340;28;20499;-80
2022/07/07 07:52:21;;;;;;;5.60;1.60;;;;;;;16.51;100.00;68602.81;4992644;28;20061;-80
2022/07/07 07:54:46;;;;;;;6.68;1.50;;;;;;;;;;5003576;28;20046;-79
2022/07/07 07:57:12;;;;;;;6.47;1.73;;;;;;;16.32;100.00;68581.75;5002639;28;20042;-79
2022/07/07 07:59:37;;;;;;;5.97;1.17;;;;;;;16.23;100.00;68577.41;4993998;28;20149;-79
2022/07/07 08:02:03;;;;;;;5.28;1.38;;;;;;;;;;4990079;28;20031;-79
2022/07/07 08:04:29;;;;;;;5.40;1.30;;;;;;;;;;4994932;28;20532;-79
2022/07/07 08:06:54;;;;;;;4.95;1.13;;;;;;;;;;5012067;28;20057;-79
2022/07/07 08:09:19;;;;;;;5.93;1.40;;;;;;;;;;5008093;28;20034;-77
2022/07/07 08:11:44;;;;;;;2.90;1.00;;;;;;;;;;5014725;28;20042;-79
2022/07/07 08:14:10;;;;;;;5.87;1.50;;;;;;;16.19;100.00;68573.41;5012162;28;20503;-80
2022/07/07 08:16:36;;;;;;;6.07;1.67;;;;;;;16.27;100.00;68576.59;5011237;28;20277;-78
2022/07/07 08:19:02;;;;;;;4.70;1.23;;;;;;;16.34;100.00;68589.97;5012846;28;20040;-78
2022/07/07 08:21:27;;;;;;;3.88;0.98;;;;;;;16.37;98.89;68593.38;5013596;28;20050;-79
2022/07/07 08:23:52;;;;;;;4.43;1.20;;;;;;;16.43;98.83;68599.66;5033049;28;20054;-80
2022/07/07 08:26:18;;;;;;;3.95;1.20;;;;;;;;;;5011414;28;20084;-80
2022/07/07 08:28:43;;;;;;;4.63;0.95;;;;;;;16.49;96.50;68601.13;5041527;22;20130;-80
2022/07/07 08:31:08;;;;;;;5.07;1.10;;;;;;;;;;5067539;28;20053;-79
2022/07/07 08:33:34;;;;;;;4.57;0.80;;;;;;;;;;5070551;28;20043;-80
2022/07/07 08:36:00;;;;;;;4.50;1.00;;;;;;;17.01;93.86;68656.03;5072218;28;20040;-79
2022/07/07 08:38:26;;;;;;;3.47;0.90;;;;;;;17.07;93.91;68662.88;5070163;28;20066;-80
2022/07/07 08:40:51;;;;;;;4.97;1.30;;;;;;;17.09;93.18;68667.84;5084049;28;20051;-78
2022/07/07 08:43:18;;;;;;;4.47;0.90;;;;;;;17.36;93.86;68704.03;5085667;28;20050;-79
2022/07/07 08:45:45;;;;;;;4.65;1.10;;;;;;;17.46;90.50;68709.47;5082400;28;20404;-80
2022/07/07 08:48:10;;;;;;;2.55;0.60;;;;;;;;;;5083980;28;20531;-80
2022/07/07 08:50:37;;;;;;;2.85;0.70;;;;;;;;;;5083380;28;20048;-80
2022/07/07 08:53:03;;;;;;;2.28;0.50;;;;;;;16.98;95.80;68655.88;5085265;28;20099;-78
2022/07/07 08:55:32;;;;;;;1.25;0.52;;;;;;;16.85;94.98;68641.59;5065387;28;20148;-80
2022/07/07 08:57:59;;;;;;;1.75;0.40;;;;;;;16.82;95.60;68637.63;5067984;28;20037;-80
2022/07/07 09:00:24;;;;;;;1.40;0.50;;;;;;;;;;5066626;28;20032;-80
2022/07/07 09:02:55;;;;;;;2.33;0.60;;;;;;;16.91;94.29;68653.81;5088600;28;20048;-79
2022/07/07 09:05:20;;;;;;;2.13;0.88;;;;;;;;;;5083139;28;20060;-79
2022/07/07 09:07:49;;;;;;;1.75;0.50;;;;;;;;;;5090696;28;20048;-78
2022/07/07 09:10:32;;;;;;;3.45;0.63;;;;;;;17.36;95.01;68698.06;5081838;28;20142;-80
2022/07/07 09:12:57;;;;;;;2.33;0.55;;;;;;;;;;5082830;28;20056;-78
2022/07/07 09:15:24;;;;;;;3.20;0.52;;;;;;;17.54;93.49;68723.41;5085420;28;20086;-77
2022/07/07 09:17:49;;;;;;;3.13;0.57;;;;;;;17.76;90.65;68743.16;5087164;28;20051;-80
2022/07/07 09:20:15;;;;;;;3.13;0.68;;;;;;;17.88;89.74;68761.69;5085893;28;20040;-79
2022/07/07 09:22:40;;;;;;;3.13;0.68;;;;;;;17.77;86.37;68744.28;5083488;28;20041;-79
2022/07/07 09:25:07;;;;;;;3.92;0.63;;;;;;;;;;5069785;28;20045;-80
2022/07/07 09:27:32;;;;;;;4.05;0.82;;;;;;;;;;5068926;28;20044;-79
2022/07/07 09:29:57;;;;;;;4.55;0.90;;;;;;;;;;5070299;28;20265;-80
2022/07/07 09:32:23;;;;;;;3.08;0.93;;;;;;;17.91;86.05;68759.16;5086745;28;20066;-78
2022/07/07 09:34:48;;;;;;;2.40;0.68;;;;;;;17.99;87.20;68768.28;5078628;28;20075;-80
2022/07/07 09:39:58;;;;;;;1.83;0.55;;;;;;;;;;5066083;28;20109;-80
2022/07/07 09:42:26;;;;;;;1.80;0.40;;;;;;;18.00;85.78;68774.81;5070544;28;20044;-80
2022/07/07 09:44:54;;;;;;;1.88;0.40;;;;;;;;;;5085501;28;20051;-79
2022/07/07 09:47:21;;;;;;;2.88;0.70;;;;;;;17.91;83.72;68759.16;5085834;28;20098;-79
2022/07/07 09:50:08;;;;;;;3.90;0.65;;;;;;;18.01;84.71;68775.94;5084996;28;20039;-80
2022/07/07 09:52:37;;;;;;;1.60;0.52;;;;;;;;;;5101573;28;20044;-78
2022/07/07 09:55:03;;;;;;;3.67;0.60;;;;;;;;;;5086140;28;20051;-80
2022/07/07 09:57:29;;;;;;;4.43;0.95;;;;;;;18.38;81.68;68808.94;5082512;28;20515;-80
2022/07/07 09:59:54;;;;;;;2.60;0.85;;;;;;;;;;5088998;28;20048;-79
2022/07/07 10:02:24;;;;;;;5.05;0.85;;;;;;;18.87;82.53;68863.78;5085507;28;20047;-78
2022/07/07 10:04:52;;;;;;;1.92;0.70;;;;;;;19.06;82.14;68888.19;5089172;28;20558;-79
2022/07/07 10:07:18;;;;;;;2.92;0.98;;;;;;;;;;5083497;28;20640;-79
2022/07/07 10:09:44;;;;;;;3.25;0.73;;;;;;;18.68;83.10;68845.91;5086114;28;20040;-79
2022/07/07 10:12:13;;;;;;;4.43;0.63;;;;;;;18.59;84.03;68841.03;5087206;28;20044;-80
2022/07/07 10:14:41;;;;;;;2.92;0.75;;;;;;;;;;5084130;28;20046;-77
2022/07/07 10:17:07;;;;;;;5.25;0.70;;;;;;;;;;5082916;28;20504;-80
2022/07/07 10:19:32;;;;;;;2.85;0.70;;;;;;;17.82;88.82;68749.44;5082420;28;20036;-79
2022/07/07 10:21:59;;;;;;;4.05;0.90;;;;;;;17.54;89.51;68723.41;5080995;28;20079;-80
2022/07/07 10:24:29;;;;;;;4.00;1.00;;;;;;;17.37;91.83;68697.09;5073870;28;20043;-79
2022/07/07 10:26:58;;;;;;;4.30;1.10;;;;;;;17.25;91.65;68686.09;5064451;28;20063;-79
2022/07/07 10:29:42;;;;;;;3.40;1.20;;;;;;;17.18;92.28;68678.13;5059125;28;20053;-79
2022/07/07 10:32:09;;;;;;;6.10;1.15;;;;;;;17.26;94.13;68692.03;5067554;28;20036;-79
2022/07/07 10:34:37;;;;;;;3.60;0.85;;;;;;;17.30;93.52;68688.53;5066385;28;20040;-80
2022/07/07 10:37:03;;;;;;;4.43;0.93;;;;;;;;;;5068551;28;20041;-79
2022/07/07 10:39:34;;;;;;;4.53;1.20;;;;;;;;;;5067039;28;20051;-79
2022/07/07 10:42:06;;;;;;;3.50;0.90;;;;;;;17.99;90.36;68773.66;5067125;28;20036;-78
2022/07/07 10:44:33;;;;;;;3.30;0.93;;;;;;;;;;5064937;28;20119;-79
2022/07/07 10:47:01;;;;;;;4.28;0.73;;;;;;;18.27;85.89;68800.25;5061482;28;20067;-79
2022/07/07 10:49:44;;;;;;;3.60;0.95;;;;;;;18.50;83.14;68825.38;5061497;28;20033;-80
2022/07/07 10:52:13;;;;;;;3.88;0.50;;;;;;;;;;5065078;28;20065;-79
2022/07/07 10:54:40;;;;;;;5.28;0.90;;;;;;;;;;5065385;28;20047;-79
2022/07/07 10:57:05;;;;;;;4.68;0.95;;;;;;;18.78;81.62;68856.22;5061301;28;20476;-79
2022/07/07 11:00:00;;;;;;;3.80;0.80;;;;;;;18.79;81.16;68863.31;5064303;28;20060;-79
2022/07/07 11:02:29;;;;;;;3.90;0.98;;;;;;;18.74;81.79;68849.53;5068833;28;20055;-79
2022/07/07 11:04:55;;;;;;;3.03;0.70;;;;;;;;;;5072177;28;20068;-80
2022/07/07 11:07:21;;;;;;;4.03;0.90;;;;;;;;;;5070681;28;20040;-79
2022/07/07 11:09:57;;;;;;;3.75;0.90;;;;;;;;;;5095763;28;20047;-79
2022/07/07 11:12:45;;;;;;;4.38;1.15;;;;;;;18.31;86.36;68803.66;5070682;28;20045;-79
2022/07/07 11:15:26;;;;;;;3.58;0.88;;;;;;;;;;5068256;28;20045;-79
2022/07/07 11:17:52;;;;;;;5.38;0.85;;;;;;;18.43;86.14;68817.38;5064739;28;20163;-80
2022/07/07 11:20:22;;;;;;;2.33;0.82;;;;;;;18.44;86.05;68824.47;5066923;28;20068;-80
2022/07/07 11:22:49;;;;;;;4.82;1.00;;;;;;;18.55;86.60;68831.06;5068402;28;20073;-80
2022/07/07 11:25:17;;;;;;;3.53;0.80;;;;;;;18.76;84.76;68853.91;5070332;28;20043;-80
2022/07/07 11:27:43;;;;;;;3.78;1.00;;;;;;;18.83;83.22;68867.31;5067350;28;20036;-80
2022/07/07 11:30:09;;;;;;;2.85;0.95;;;;;;;18.81;81.71;68860.19;5068360;28;20157;-79
2022/07/07 11:32:36;;;;;;;2.30;0.65;;;;;;;;;;5083355;28;20048;-80
2022/07/07 11:35:07;;;;;;;3.90;0.90;;;;;;;18.99;82.54;68879.63;5084144;28;20126;-80
2022/07/07 11:37:34;;;;;;;5.63;1.30;;;;;;;18.97;82.33;68877.91;5086262;28;20116;-80
2022/07/07 11:40:00;;;;;;;1.95;0.80;;;;;;;18.96;83.00;68876.78;5088127;28;20044;-80
2022/07/07 11:42:26;;;;;;;5.07;1.30;;;;;;;;;;5070428;28;20047;-80
2022/07/07 11:44:52;;;;;;;5.63;1.02;;;;;;;;;;5071964;28;20048;-79
2022/07/07 11:47:17;;;;;;;4.07;0.80;;;;;;;18.53;84.32;68828.78;5073786;28;20032;-80
2022/07/07 11:49:43;;;;;;;2.88;0.90;;;;;;;18.32;85.72;68804.81;5072003;28;20620;-78
2022/07/07 11:52:15;;;;;;;3.88;0.95;;;;;;;18.42;87.17;68816.78;5073724;28;20102;-79
2022/07/07 11:54:47;;;;;;;2.85;0.82;;;;;;;18.41;86.00;68815.66;5068888;28;20056;-80
2022/07/07 11:57:29;;;;;;;3.25;0.93;;;;;;;18.62;86.28;68839.06;5072636;28;20033;-78
2022/07/07 11:59:54;;;;;;;6.00;1.20;;;;;;;18.80;85.14;68863.88;5076666;28;20044;-80
2022/07/07 12:02:20;;;;;;;2.13;0.90;;;;;;;18.75;84.39;68853.34;5084112;28;20036;-80
2022/07/07 12:04:45;;;;;;;4.22;1.10;;;;;;;18.80;83.67;68866.59;5085502;28;20511;-80
2022/07/07 12:07:11;;;;;;;4.03;1.20;;;;;;;;;;5061714;28;20040;-80
2022/07/07 12:09:36;;;;;;;2.67;1.00;;;;;;;;;;5081997;28;20039;-79
2022/07/07 12:12:02;;;;;;;4.30;1.30;;;;;;;;;;5070115;28;20487;-80
2022/07/07 12:14:27;;;;;;;5.80;1.75;;;;;;;17.89;96.19;68762.81;5080501;28;20048;-80
2022/07/07 12:16:53;;;;;;;4.72;1.80;;;;;;;;;;5072369;28;20048;-81
2022/07/07 12:19:18;;;;;;;5.13;1.90;;;;;;;17.73;100.00;68739.16;5068381;28;20127;-80
2022/07/07 12:21:46;;;;;;;5.32;1.85;;;;;;;17.71;100.00;68742.81;5063857;28;20040;-80
2022/07/07 12:24:14;;;;;;;5.85;2.00;;;;;;;17.81;100.00;68748.88;5067250;28;20032;-80